Time;durP1;ratioP1;P1;durP2;ratioP2;P2;SDS_P1;SDS_P2;PMS_P1;PMS_P2;Temp;Humidity;BMP_temperature;BMP_pressure;BME280_temperature;BME280_humidity;BME280_pressure;Samples;Min_cycle;Max_cycle;Signal;HPM_P1;HPM_P2
2024/04/08 00:01:44;;;;;;;11.65;2.65;;;11.40;99.90;;;;;;5026640;28;20060;-79
2024/04/08 00:04:10;;;;;;;10.45;2.47;;;11.40;99.90;;;;;;5032428;28;20080;-79
2024/04/08 00:06:35;;;;;;;7.93;2.50;;;11.30;99.90;;;;;;5028744;28;20077;-79
2024/04/08 00:09:01;;;;;;;10.60;2.97;;;11.20;99.90;;;;;;5028656;28;20045;-80
2024/04/08 00:11:27;;;;;;;8.52;2.72;;;11.20;99.90;;;;;;5031879;28;20095;-79
2024/04/08 00:13:52;;;;;;;11.68;2.50;;;11.20;99.90;;;;;;5031082;28;20047;-80
2024/04/08 00:16:18;;;;;;;9.05;2.33;;;11.30;99.90;;;;;;5015897;28;20041;-79
2024/04/08 00:18:43;;;;;;;10.52;3.15;;;11.30;99.90;;;;;;5033163;28;20396;-79
2024/04/08 00:21:09;;;;;;;10.40;2.55;;;11.40;99.90;;;;;;5025848;28;20038;-79
2024/04/08 00:23:34;;;;;;;14.90;3.08;;;11.30;99.90;;;;;;5025326;28;20096;-79
2024/04/08 00:26:04;;;;;;;6.80;2.20;;;11.20;99.90;;;;;;5032654;28;20041;-79
2024/04/08 00:28:30;;;;;;;12.25;2.28;;;11.10;99.90;;;;;;5031688;28;20045;-78
2024/04/08 00:31:03;;;;;;;9.48;2.20;;;11.10;99.90;;;;;;5028933;28;20049;-78
2024/04/08 00:33:30;;;;;;;11.77;2.65;;;11.20;99.90;;;;;;5033808;28;20144;-80
2024/04/08 00:35:55;;;;;;;11.38;2.63;;;11.20;99.90;;;;;;5032458;28;20108;-80
2024/04/08 00:38:21;;;;;;;13.68;2.78;;;11.20;99.90;;;;;;5036383;28;20033;-80
2024/04/08 00:40:47;;;;;;;12.70;3.28;;;11.20;99.90;;;;;;5037124;28;20069;-79
2024/04/08 00:43:12;;;;;;;10.48;3.15;;;11.10;99.90;;;;;;5036721;28;20416;-78
2024/04/08 00:45:40;;;;;;;8.80;2.50;;;11.10;99.90;;;;;;5036638;28;20048;-79
2024/04/08 00:48:08;;;;;;;10.95;2.90;;;11.10;99.90;;;;;;5035155;28;20056;-79
2024/04/08 00:50:35;;;;;;;10.63;2.60;;;11.10;99.90;;;;;;5036474;28;20473;-80
2024/04/08 00:53:01;;;;;;;9.35;2.67;;;11.10;99.90;;;;;;5036802;28;20045;-79
2024/04/08 00:55:28;;;;;;;11.45;2.58;;;11.10;99.90;;;;;;5027805;28;20492;-79
2024/04/08 00:57:56;;;;;;;7.97;2.25;;;11.10;99.90;;;;;;5036505;28;20060;-79
2024/04/08 01:00:21;;;;;;;12.82;2.80;;;11.10;99.90;;;;;;5037825;28;20063;-79
2024/04/08 01:02:47;;;;;;;8.50;2.47;;;11.20;99.90;;;;;;5034682;28;20052;-79
2024/04/08 01:05:14;;;;;;;11.23;3.00;;;11.10;99.90;;;;;;5034327;28;20037;-78
2024/04/08 01:07:44;;;;;;;8.18;2.30;;;11.10;99.90;;;;;;5037780;28;20045;-79
2024/04/08 01:10:11;;;;;;;11.98;3.00;;;11.00;99.90;;;;;;5018868;28;20039;-79
2024/04/08 01:12:36;;;;;;;10.80;2.97;;;10.90;99.90;;;;;;5036776;28;20554;-80
2024/04/08 01:15:02;;;;;;;11.55;2.80;;;10.90;99.90;;;;;;5029895;28;20097;-79
2024/04/08 01:17:29;;;;;;;9.15;2.83;;;10.90;99.90;;;;;;5033168;28;20102;-80
2024/04/08 01:19:55;;;;;;;13.45;2.58;;;11.00;99.90;;;;;;5032727;28;20034;-80
2024/04/08 01:22:20;;;;;;;10.60;2.40;;;11.00;99.90;;;;;;5034592;28;20543;-79
2024/04/08 01:24:46;;;;;;;8.35;2.08;;;11.00;99.90;;;;;;5035488;28;20105;-77
2024/04/08 01:27:12;;;;;;;8.98;2.88;;;11.00;99.90;;;;;;5051101;28;20053;-79
2024/04/08 01:29:37;;;;;;;10.82;2.80;;;10.90;99.90;;;;;;5038205;28;20043;-79
2024/04/08 01:32:03;;;;;;;15.63;3.22;;;10.90;99.90;;;;;;5036512;28;20053;-79
2024/04/08 01:34:29;;;;;;;12.32;2.90;;;10.80;99.90;;;;;;5036394;28;20033;-79
2024/04/08 01:36:54;;;;;;;10.43;2.70;;;10.90;99.90;;;;;;5031885;28;20101;-79
2024/04/08 01:39:20;;;;;;;9.15;2.63;;;10.90;99.90;;;;;;5019805;28;20037;-79
2024/04/08 01:41:45;;;;;;;10.70;2.50;;;10.90;99.90;;;;;;5036152;28;20049;-78
2024/04/08 01:44:11;;;;;;;15.57;3.35;;;11.00;99.90;;;;;;5036923;28;20041;-79
2024/04/08 01:46:37;;;;;;;14.07;3.00;;;11.00;99.90;;;;;;5036688;28;20057;-79
2024/04/08 01:49:03;;;;;;;14.23;3.25;;;11.10;99.90;;;;;;5034420;28;20101;-78
2024/04/08 01:51:28;;;;;;;15.32;3.70;;;11.20;99.90;;;;;;5036038;28;20049;-79
2024/04/08 01:53:54;;;;;;;13.13;3.42;;;11.20;99.90;;;;;;5019154;28;20037;-80
2024/04/08 01:56:19;;;;;;;9.07;2.25;;;11.30;99.90;;;;;;5037594;28;20029;-79
2024/04/08 01:58:45;;;;;;;12.63;3.08;;;11.40;99.90;;;;;;5035872;28;20161;-78
2024/04/08 02:01:11;;;;;;;7.85;2.08;;;11.40;99.90;;;;;;5035575;28;20056;-78
2024/04/08 02:03:36;;;;;;;15.68;3.15;;;11.40;99.90;;;;;;5036394;28;20049;-79
2024/04/08 02:06:02;;;;;;;13.35;2.80;;;11.40;99.90;;;;;;5036396;28;20129;-79
2024/04/08 02:08:27;;;;;;;10.57;2.63;;;11.50;99.90;;;;;;5033941;28;20037;-79
2024/04/08 02:10:53;;;;;;;9.00;2.38;;;11.50;99.90;;;;;;5020174;28;20048;-79
2024/04/08 02:13:18;;;;;;;11.60;2.72;;;11.50;99.90;;;;;;5036025;28;20077;-79
2024/04/08 02:15:44;;;;;;;13.30;3.50;;;11.50;99.90;;;;;;5037050;28;20605;-79
2024/04/08 02:18:10;;;;;;;7.85;2.38;;;11.60;99.90;;;;;;5029834;28;20516;-79
2024/04/08 02:20:39;;;;;;;11.77;2.83;;;11.60;99.90;;;;;;5036394;28;20042;-79
2024/04/08 02:23:05;;;;;;;10.70;3.08;;;11.60;99.90;;;;;;5034167;28;20380;-79
2024/04/08 02:25:36;;;;;;;8.15;2.80;;;11.70;99.90;;;;;;5034833;28;20079;-79
2024/04/08 02:28:02;;;;;;;11.50;2.72;;;11.70;99.90;;;;;;5034211;28;20120;-79
2024/04/08 02:30:27;;;;;;;7.18;2.53;;;11.70;99.90;;;;;;5037437;28;20072;-79
2024/04/08 02:32:53;;;;;;;10.77;3.65;;;11.60;99.90;;;;;;5035314;28;20045;-79
2024/04/08 02:35:18;;;;;;;8.68;3.08;;;11.60;99.90;;;;;;5035501;28;20493;-79
2024/04/08 02:37:44;;;;;;;10.85;2.85;;;11.60;99.90;;;;;;5032774;28;20048;-79
2024/04/08 02:40:10;;;;;;;10.95;3.13;;;11.60;99.90;;;;;;5034080;28;20037;-78
2024/04/08 02:42:36;;;;;;;11.40;2.90;;;11.60;99.90;;;;;;5035375;28;20049;-78
2024/04/08 02:45:03;;;;;;;6.25;2.97;;;11.70;99.90;;;;;;5025971;28;20093;-79
2024/04/08 02:47:28;;;;;;;8.68;3.50;;;11.70;99.90;;;;;;5027676;28;20489;-79
2024/04/08 02:49:54;;;;;;;10.45;2.95;;;11.70;99.90;;;;;;5033338;28;20048;-79
2024/04/08 02:52:19;;;;;;;12.55;3.38;;;11.70;99.90;;;;;;5035906;28;20551;-79
2024/04/08 02:54:45;;;;;;;14.63;3.78;;;11.70;99.90;;;;;;5036712;28;20618;-79
2024/04/08 02:57:11;;;;;;;10.48;3.92;;;11.80;99.90;;;;;;5035214;28;20046;-79
2024/04/08 02:59:36;;;;;;;9.18;3.08;;;11.70;99.90;;;;;;5035403;28;20041;-78
2024/04/08 03:02:02;;;;;;;10.10;3.28;;;11.70;99.90;;;;;;5039195;28;20045;-79
2024/04/08 03:04:27;;;;;;;11.60;3.70;;;11.70;99.90;;;;;;5047550;28;20033;-79
2024/04/08 03:06:53;;;;;;;12.55;3.55;;;11.80;99.90;;;;;;5034555;28;20442;-79
2024/04/08 03:09:19;;;;;;;10.50;3.58;;;11.80;99.90;;;;;;5036460;28;20052;-79
2024/04/08 03:11:45;;;;;;;9.45;3.80;;;11.80;99.90;;;;;;5036605;28;20064;-79
2024/04/08 03:14:11;;;;;;;9.30;4.00;;;11.80;99.90;;;;;;5034770;28;20044;-79
2024/04/08 03:16:37;;;;;;;7.88;3.22;;;11.90;99.90;;;;;;5034402;28;20045;-79
2024/04/08 03:19:03;;;;;;;8.38;4.22;;;11.60;99.90;;;;;;5031756;28;20049;-78
2024/04/08 03:21:28;;;;;;;11.25;4.32;;;11.90;99.90;;;;;;5034911;28;20060;-79
2024/04/08 03:23:57;;;;;;;11.32;4.57;;;11.90;99.90;;;;;;5035602;28;20053;-79
2024/04/08 03:26:23;;;;;;;12.60;5.00;;;11.90;99.90;;;;;;5028182;28;20057;-79
2024/04/08 03:28:49;;;;;;;13.18;4.57;;;12.00;99.90;;;;;;5029853;28;20049;-78
2024/04/08 03:31:15;;;;;;;12.48;5.32;;;12.00;99.90;;;;;;5034910;28;20551;-79
2024/04/08 03:33:40;;;;;;;13.98;5.28;;;12.00;99.90;;;;;;5028319;28;20078;-79
2024/04/08 03:36:10;;;;;;;10.88;4.85;;;12.00;99.90;;;;;;5033408;28;20441;-79
2024/04/08 03:38:36;;;;;;;14.32;5.25;;;12.00;99.90;;;;;;5034404;28;20037;-79
2024/04/08 03:41:06;;;;;;;11.07;5.18;;;11.90;99.90;;;;;;5033955;28;20067;-79
2024/04/08 03:43:32;;;;;;;12.60;5.50;;;12.00;99.90;;;;;;5036215;28;20052;-78
2024/04/08 03:45:58;;;;;;;10.68;5.13;;;12.00;99.90;;;;;;5034544;28;20052;-79
2024/04/08 03:48:24;;;;;;;10.73;4.78;;;11.90;99.90;;;;;;5009973;28;20048;-79
2024/04/08 03:50:50;;;;;;;13.75;5.90;;;12.00;99.90;;;;;;5031291;28;20084;-79
2024/04/08 03:53:16;;;;;;;12.52;5.55;;;11.90;99.90;;;;;;5033709;28;20469;-78
2024/04/08 03:55:42;;;;;;;10.93;5.40;;;11.90;99.90;;;;;;5036325;28;20073;-78
2024/04/08 03:58:08;;;;;;;15.63;5.78;;;11.90;99.90;;;;;;5034933;28;20110;-79
2024/04/08 04:00:34;;;;;;;12.93;5.97;;;11.90;99.90;;;;;;5034746;28;20501;-79
2024/04/08 04:03:00;;;;;;;13.13;5.68;;;11.90;99.90;;;;;;5031411;28;20045;-79
2024/04/08 04:05:25;;;;;;;14.90;6.22;;;11.90;99.90;;;;;;5034655;28;20037;-79
2024/04/08 04:07:51;;;;;;;10.50;6.35;;;11.90;99.90;;;;;;5033864;28;20047;-79
2024/04/08 04:10:18;;;;;;;15.18;5.57;;;11.90;99.90;;;;;;5035454;28;20053;-80
2024/04/08 04:12:44;;;;;;;10.23;6.68;;;11.90;99.90;;;;;;5037417;28;20083;-79
2024/04/08 04:15:12;;;;;;;12.30;7.05;;;11.90;99.90;;;;;;5037701;28;20041;-79
2024/04/08 04:17:38;;;;;;;13.35;6.68;;;11.90;99.90;;;;;;5037787;28;20030;-79
2024/04/08 04:20:06;;;;;;;14.27;7.10;;;11.90;99.90;;;;;;5034417;28;20568;-79
2024/04/08 04:22:32;;;;;;;14.35;7.65;;;11.90;99.90;;;;;;5037153;28;20084;-79
2024/04/08 04:24:58;;;;;;;13.88;8.13;;;11.90;99.90;;;;;;5037421;28;20475;-79
2024/04/08 04:27:23;;;;;;;14.55;7.40;;;11.90;99.90;;;;;;5037235;28;20064;-79
2024/04/08 04:29:49;;;;;;;13.90;6.90;;;11.90;99.90;;;;;;5034435;28;20042;-79
2024/04/08 04:32:14;;;;;;;13.40;6.53;;;11.90;99.90;;;;;;5035077;28;20044;-79
2024/04/08 04:34:40;;;;;;;11.73;6.22;;;11.90;99.90;;;;;;5039673;28;20320;-79
2024/04/08 04:37:05;;;;;;;9.95;6.38;;;11.90;99.90;;;;;;5037582;28;20049;-79
2024/04/08 04:39:31;;;;;;;14.15;7.68;;;11.90;99.90;;;;;;5038384;28;20049;-79
2024/04/08 04:41:57;;;;;;;10.00;6.70;;;11.90;99.90;;;;;;5037792;28;20099;-79
2024/04/08 04:44:22;;;;;;;12.70;6.38;;;11.90;99.90;;;;;;5038618;28;20042;-80
2024/04/08 04:46:48;;;;;;;12.48;7.35;;;11.90;99.90;;;;;;5036549;28;20045;-79
2024/04/08 04:49:14;;;;;;;13.60;5.88;;;11.90;99.90;;;;;;5037054;28;20087;-79
2024/04/08 04:51:39;;;;;;;12.07;6.47;;;12.00;99.90;;;;;;5037158;28;20073;-79
2024/04/08 04:54:05;;;;;;;12.73;6.70;;;11.90;99.90;;;;;;5032605;28;20052;-79
2024/04/08 04:56:31;;;;;;;10.18;6.88;;;11.90;99.90;;;;;;5036888;28;20044;-80
2024/04/08 04:58:57;;;;;;;13.15;6.40;;;11.90;99.90;;;;;;5038850;28;20041;-79
2024/04/08 05:01:22;;;;;;;10.50;6.03;;;11.90;99.90;;;;;;5035058;28;20041;-80
2024/04/08 05:03:48;;;;;;;11.98;6.72;;;11.90;99.90;;;;;;5036131;28;20496;-79
2024/04/08 05:06:16;;;;;;;17.08;7.22;;;11.90;99.90;;;;;;5036738;28;20037;-79
2024/04/08 05:08:42;;;;;;;13.05;6.50;;;11.90;99.90;;;;;;5029943;28;20049;-79
2024/04/08 05:11:08;;;;;;;10.65;6.80;;;11.90;99.90;;;;;;5036423;28;20044;-79
2024/04/08 05:13:33;;;;;;;13.30;6.60;;;11.90;99.90;;;;;;5032257;28;20037;-80
2024/04/08 05:16:03;;;;;;;14.48;6.80;;;11.90;99.90;;;;;;5032901;28;20034;-79
2024/04/08 05:18:30;;;;;;;11.68;5.82;;;11.90;99.90;;;;;;5038158;28;20112;-79
2024/04/08 05:20:57;;;;;;;9.73;5.57;;;11.90;99.90;;;;;;5028867;28;20447;-79
2024/04/08 05:23:25;;;;;;;14.38;6.97;;;12.00;99.90;;;;;;5040377;28;20099;-80
2024/04/08 05:25:51;;;;;;;17.15;6.28;;;12.00;99.90;;;;;;5031812;28;20030;-79
2024/04/08 05:28:17;;;;;;;10.55;5.95;;;11.90;99.90;;;;;;5026455;28;20157;-79
2024/04/08 05:30:43;;;;;;;12.80;6.60;;;12.00;99.90;;;;;;5036608;28;20037;-79
2024/04/08 05:33:09;;;;;;;11.27;6.05;;;12.00;99.90;;;;;;5032084;28;20056;-79
2024/04/08 05:35:35;;;;;;;12.23;6.22;;;12.00;99.90;;;;;;5034198;28;20037;-79
2024/04/08 05:38:01;;;;;;;12.95;6.57;;;12.00;99.90;;;;;;5034775;28;20060;-79
2024/04/08 05:40:26;;;;;;;14.80;6.68;;;12.00;99.90;;;;;;5034663;28;20049;-80
2024/04/08 05:42:53;;;;;;;15.52;6.43;;;12.00;99.90;;;;;;5033771;28;20033;-79
2024/04/08 05:45:19;;;;;;;16.38;6.95;;;12.00;99.90;;;;;;5036301;28;20041;-79
2024/04/08 05:47:44;;;;;;;11.32;6.47;;;12.10;99.90;;;;;;5036325;28;20067;-79
2024/04/08 05:50:10;;;;;;;12.45;6.63;;;12.00;99.90;;;;;;5034758;28;20048;-79
2024/04/08 05:52:35;;;;;;;16.23;8.73;;;12.10;99.90;;;;;;5034528;28;20038;-79
2024/04/08 05:55:01;;;;;;;18.02;7.32;;;12.10;99.90;;;;;;5034055;28;20041;-79
2024/04/08 05:57:27;;;;;;;14.68;7.45;;;12.10;99.90;;;;;;5035951;28;20127;-79
2024/04/08 05:59:52;;;;;;;12.98;7.15;;;12.10;99.90;;;;;;5036511;28;20041;-79
2024/04/08 06:02:18;;;;;;;13.95;7.10;;;12.20;99.90;;;;;;5035901;28;20037;-80
2024/04/08 06:04:45;;;;;;;14.40;6.90;;;12.20;99.90;;;;;;5027876;28;20100;-79
2024/04/08 06:07:11;;;;;;;13.35;7.43;;;12.30;99.90;;;;;;5034638;28;20037;-79
2024/04/08 06:09:37;;;;;;;15.45;7.00;;;12.40;99.90;;;;;;5033846;28;20124;-79
2024/04/08 06:12:03;;;;;;;13.50;7.43;;;12.40;99.90;;;;;;5030351;28;20132;-79
2024/04/08 06:14:29;;;;;;;14.23;8.05;;;12.40;99.90;;;;;;5035546;28;20033;-79
2024/04/08 06:16:58;;;;;;;12.27;7.45;;;12.40;99.90;;;;;;5035402;28;20049;-80
2024/04/08 06:19:24;;;;;;;11.20;6.88;;;12.90;99.90;;;;;;5035863;28;20408;-79
2024/04/08 06:21:50;;;;;;;12.77;7.90;;;12.50;99.90;;;;;;5033674;28;20045;-79
2024/04/08 06:24:15;;;;;;;14.85;7.97;;;12.50;99.90;;;;;;5035326;28;20486;-79
2024/04/08 06:26:41;;;;;;;13.55;7.97;;;12.50;99.90;;;;;;5031903;28;20046;-80
2024/04/08 06:29:06;;;;;;;14.30;7.97;;;12.50;99.90;;;;;;5045597;28;20065;-80
2024/04/08 06:31:32;;;;;;;13.10;7.72;;;12.50;99.90;;;;;;5033931;28;20060;-80
2024/04/08 06:33:57;;;;;;;11.27;7.50;;;12.50;99.90;;;;;;5035727;28;20080;-80
2024/04/08 06:36:23;;;;;;;12.95;7.95;;;12.50;99.90;;;;;;5035792;28;20049;-80
2024/04/08 06:38:49;;;;;;;14.65;8.43;;;12.50;99.90;;;;;;5031381;28;20034;-80
2024/04/08 06:41:17;;;;;;;15.95;7.88;;;12.50;99.90;;;;;;5035608;28;20046;-80
2024/04/08 06:43:43;;;;;;;14.13;7.85;;;12.50;99.90;;;;;;5035566;28;20041;-80
2024/04/08 06:46:08;;;;;;;13.40;7.65;;;12.50;99.90;;;;;;5035376;28;20041;-80
2024/04/08 06:48:34;;;;;;;16.27;8.80;;;12.50;99.90;;;;;;5035480;28;20144;-80
2024/04/08 06:50:59;;;;;;;14.45;7.93;;;12.50;99.90;;;;;;5018193;28;20045;-80
2024/04/08 06:53:25;;;;;;;14.68;7.50;;;12.50;99.90;;;;;;5030373;28;20156;-80
2024/04/08 06:55:50;;;;;;;15.57;7.30;;;12.50;99.90;;;;;;5019995;28;20061;-78
2024/04/08 06:58:19;;;;;;;12.52;6.95;;;12.60;99.90;;;;;;5025326;28;20123;-79
2024/04/08 07:00:48;;;;;;;13.60;6.88;;;12.60;99.90;;;;;;5045638;28;20033;-80
2024/04/08 07:03:14;;;;;;;13.98;7.60;;;12.60;99.90;;;;;;5027926;28;20069;-80
2024/04/08 07:05:40;;;;;;;14.57;7.15;;;12.60;99.90;;;;;;5030297;28;20498;-80
2024/04/08 07:08:06;;;;;;;11.80;6.80;;;12.60;99.90;;;;;;5017650;28;20093;-79
2024/04/08 07:10:32;;;;;;;13.43;7.20;;;12.60;99.90;;;;;;5025920;28;20093;-79
2024/04/08 07:12:57;;;;;;;14.57;6.85;;;12.70;99.90;;;;;;5028314;28;20040;-80
2024/04/08 07:15:23;;;;;;;11.13;7.15;;;12.80;99.90;;;;;;5025965;28;20073;-80
2024/04/08 07:17:49;;;;;;;11.45;6.45;;;12.70;99.90;;;;;;5034978;28;20083;-80
2024/04/08 07:20:14;;;;;;;14.30;6.50;;;12.70;99.90;;;;;;5033972;28;20095;-80
2024/04/08 07:22:40;;;;;;;12.85;6.53;;;12.70;99.90;;;;;;5033688;28;20053;-79
2024/04/08 07:25:06;;;;;;;13.15;7.38;;;12.70;99.90;;;;;;5028830;28;20042;-79
2024/04/08 07:27:31;;;;;;;10.27;6.35;;;12.70;99.90;;;;;;5021921;28;20060;-80
2024/04/08 07:29:57;;;;;;;11.52;7.35;;;12.70;99.90;;;;;;5021957;28;20045;-80
2024/04/08 07:32:25;;;;;;;12.80;7.28;;;12.70;99.90;;;;;;5020729;28;20116;-80
2024/04/08 07:34:51;;;;;;;12.48;8.25;;;12.70;99.90;;;;;;5024385;28;20455;-80
2024/04/08 07:37:16;;;;;;;11.98;7.47;;;12.70;99.90;;;;;;5021452;28;20045;-80
2024/04/08 07:39:42;;;;;;;15.68;7.10;;;12.70;99.90;;;;;;5021233;28;20030;-79
2024/04/08 07:42:07;;;;;;;19.08;7.22;;;12.70;99.90;;;;;;5023575;28;20072;-79
2024/04/08 07:44:34;;;;;;;13.32;7.88;;;12.70;99.90;;;;;;5035159;28;20109;-80
2024/04/08 07:46:59;;;;;;;14.15;8.10;;;12.80;99.90;;;;;;5034519;28;20053;-80
2024/04/08 07:49:25;;;;;;;15.27;7.90;;;12.80;99.90;;;;;;5034636;28;20045;-80
2024/04/08 07:51:51;;;;;;;12.15;7.75;;;12.90;99.90;;;;;;5034369;28;20041;-79
2024/04/08 07:54:17;;;;;;;13.73;7.13;;;12.90;99.90;;;;;;5034585;28;20072;-79
2024/04/08 07:56:42;;;;;;;13.02;8.00;;;13.00;99.90;;;;;;5027568;28;20044;-80
2024/04/08 07:59:08;;;;;;;14.48;8.05;;;13.00;99.90;;;;;;5034774;28;20045;-79
2024/04/08 08:01:33;;;;;;;14.15;8.15;;;13.10;99.90;;;;;;5035825;28;20489;-80
2024/04/08 08:03:59;;;;;;;15.93;8.85;;;13.00;99.90;;;;;;5035271;28;20050;-80
2024/04/08 08:06:25;;;;;;;12.63;7.50;;;13.10;99.90;;;;;;5034884;28;20038;-79
2024/04/08 08:08:50;;;;;;;19.23;10.65;;;13.20;99.90;;;;;;5034213;28;20101;-79
2024/04/08 08:11:17;;;;;;;14.13;8.07;;;13.10;99.90;;;;;;5033413;28;20037;-80
2024/04/08 08:13:43;;;;;;;12.95;8.63;;;13.20;99.90;;;;;;5032553;28;20077;-79
2024/04/08 08:16:08;;;;;;;14.52;10.00;;;13.30;99.90;;;;;;5034603;28;20060;-80
2024/04/08 08:18:34;;;;;;;15.50;10.25;;;13.20;99.90;;;;;;5034542;28;20045;-80
2024/04/08 08:21:02;;;;;;;17.10;9.32;;;13.20;99.90;;;;;;5033911;28;20115;-79
2024/04/08 08:23:28;;;;;;;14.68;8.68;;;13.20;99.90;;;;;;5033882;28;20583;-80
2024/04/08 08:25:56;;;;;;;13.90;8.68;;;13.30;99.90;;;;;;5033090;28;20159;-79
2024/04/08 08:28:22;;;;;;;12.98;8.98;;;13.40;99.90;;;;;;5034003;28;20037;-78
2024/04/08 08:30:48;;;;;;;15.43;10.32;;;13.50;99.90;;;;;;5034117;28;20045;-79
2024/04/08 08:33:13;;;;;;;14.85;9.23;;;13.50;99.90;;;;;;5035540;28;20102;-80
2024/04/08 08:35:40;;;;;;;16.80;9.45;;;13.60;99.90;;;;;;5034526;28;20050;-79
2024/04/08 08:38:06;;;;;;;15.52;8.90;;;13.70;99.90;;;;;;5035797;28;20050;-79
2024/04/08 08:40:38;;;;;;;11.75;8.90;;;13.80;99.90;;;;;;5034981;28;20075;-79
2024/04/08 08:43:05;;;;;;;13.45;8.75;;;13.90;99.90;;;;;;5034553;28;20046;-79
2024/04/08 08:45:32;;;;;;;14.57;8.32;;;14.00;99.90;;;;;;5033407;28;20033;-79
2024/04/08 08:47:58;;;;;;;15.32;9.10;;;14.00;99.90;;;;;;5034312;28;20400;-79
2024/04/08 08:50:27;;;;;;;16.08;9.40;;;14.10;99.90;;;;;;5034862;28;20129;-80
2024/04/08 08:52:52;;;;;;;14.20;9.15;;;14.10;99.90;;;;;;5034800;28;20076;-79
2024/04/08 08:55:19;;;;;;;12.07;8.65;;;14.20;99.90;;;;;;5034573;28;20041;-79
2024/04/08 08:57:45;;;;;;;16.65;9.02;;;14.40;99.90;;;;;;5034995;28;20092;-80
2024/04/08 09:00:15;;;;;;;14.90;9.45;;;14.60;99.90;;;;;;5036002;28;20045;-79
2024/04/08 09:02:41;;;;;;;16.38;9.32;;;14.80;99.90;;;;;;5021273;28;20041;-79
2024/04/08 09:05:08;;;;;;;16.80;9.45;;;14.90;99.90;;;;;;5034211;28;20057;-79
2024/04/08 09:07:34;;;;;;;15.82;9.10;;;14.90;99.90;;;;;;5030138;28;20128;-79
2024/04/08 09:10:00;;;;;;;14.77;8.98;;;15.00;99.90;;;;;;5036266;28;20076;-79
2024/04/08 09:12:27;;;;;;;12.93;8.13;;;14.90;99.90;;;;;;5036364;28;20356;-79
2024/04/08 09:14:53;;;;;;;13.57;9.15;;;14.80;99.90;;;;;;5037811;28;20048;-79
2024/04/08 09:17:20;;;;;;;16.42;9.30;;;14.80;99.90;;;;;;5037866;28;20052;-79
2024/04/08 09:19:46;;;;;;;14.93;9.15;;;14.80;99.90;;;;;;5037603;28;20045;-78
2024/04/08 09:22:13;;;;;;;14.32;10.18;;;14.70;99.90;;;;;;5043980;28;20037;-79
2024/04/08 09:24:42;;;;;;;17.50;10.40;;;15.40;99.90;;;;;;5037256;28;20477;-78
2024/04/08 09:27:08;;;;;;;12.93;9.70;;;14.90;99.90;;;;;;5036651;28;20049;-78
2024/04/08 09:29:34;;;;;;;13.95;9.40;;;14.90;99.90;;;;;;5038440;28;20060;-79
2024/04/08 09:32:00;;;;;;;13.18;9.68;;;15.10;99.90;;;;;;5040107;28;20038;-79
2024/04/08 09:34:30;;;;;;;13.98;9.30;;;15.10;99.90;;;;;;5039346;28;20045;-76
2024/04/08 09:36:56;;;;;;;16.52;9.45;;;15.20;99.90;;;;;;5037867;28;20045;-78
2024/04/08 09:39:22;;;;;;;19.65;10.20;;;15.30;99.90;;;;;;5038738;28;20041;-78
2024/04/08 09:41:49;;;;;;;13.48;9.32;;;15.50;99.90;;;;;;5036889;28;20053;-78
2024/04/08 09:44:17;;;;;;;15.80;9.40;;;15.50;99.90;;;;;;5036511;28;20045;-78
2024/04/08 09:46:44;;;;;;;13.95;8.25;;;15.40;99.90;;;;;;5036872;28;20097;-79
2024/04/08 09:49:11;;;;;;;13.40;8.48;;;15.50;99.90;;;;;;5037005;28;20041;-78
2024/04/08 09:51:40;;;;;;;14.93;8.20;;;16.00;99.90;;;;;;5038073;28;20090;-78
2024/04/08 09:54:07;;;;;;;15.23;8.75;;;15.90;99.90;;;;;;5038649;28;20075;-77
2024/04/08 09:56:36;;;;;;;13.65;8.70;;;15.90;99.90;;;;;;5035479;28;20053;-79
2024/04/08 09:59:13;;;;;;;15.35;8.45;;;15.90;99.90;;;;;;5033966;28;20049;-78
2024/04/08 10:01:38;;;;;;;14.73;8.73;;;16.00;99.90;;;;;;5033218;28;20045;-78
2024/04/08 10:04:13;;;;;;;14.35;9.23;;;16.10;99.90;;;;;;5033900;28;20045;-79
2024/04/08 10:06:41;;;;;;;15.32;9.52;;;16.30;99.90;;;;;;5033532;28;20552;-78
2024/04/08 10:09:09;;;;;;;10.95;8.13;;;16.40;99.90;;;;;;5034412;28;20057;-78
2024/04/08 10:11:35;;;;;;;13.05;7.55;;;16.50;99.90;;;;;;5018334;28;20511;-78
2024/04/08 10:14:01;;;;;;;12.45;7.72;;;16.40;99.90;;;;;;5035188;28;20052;-77
2024/04/08 10:16:27;;;;;;;12.52;7.40;;;16.30;99.90;;;;;;5032951;28;20041;-78
2024/04/08 10:18:56;;;;;;;11.82;6.85;;;16.40;99.90;;;;;;5029473;28;20041;-78
2024/04/08 10:21:25;;;;;;;14.32;7.45;;;16.70;99.90;;;;;;5033653;28;20045;-78
2024/04/08 10:23:54;;;;;;;11.95;7.22;;;16.90;99.90;;;;;;5033595;28;20041;-79
2024/04/08 10:26:26;;;;;;;11.45;7.20;;;16.90;99.90;;;;;;5034587;28;20053;-79
2024/04/08 10:28:53;;;;;;;12.93;6.68;;;16.70;99.90;;;;;;5042023;28;20072;-79
2024/04/08 10:31:20;;;;;;;11.32;6.80;;;16.90;99.90;;;;;;5033865;28;20034;-80
2024/04/08 10:33:45;;;;;;;11.70;6.47;;;17.00;99.90;;;;;;5034621;28;20042;-78
2024/04/08 10:36:11;;;;;;;10.10;7.00;;;17.00;99.90;;;;;;5035439;28;20491;-77
2024/04/08 10:38:37;;;;;;;13.85;6.30;;;17.00;99.90;;;;;;5035097;28;20080;-79
2024/04/08 10:41:09;;;;;;;9.70;5.72;;;17.10;99.90;;;;;;5033784;28;20492;-78
2024/04/08 10:43:35;;;;;;;11.55;6.13;;;17.20;99.90;;;;;;5034229;28;20480;-79
2024/04/08 10:46:14;;;;;;;10.43;5.43;;;17.10;99.90;;;;;;5032075;28;20123;-78
2024/04/08 10:48:42;;;;;;;11.85;5.75;;;17.30;99.90;;;;;;5027806;28;20037;-78
2024/04/08 10:51:10;;;;;;;8.27;5.00;;;17.00;99.90;;;;;;5033187;28;20092;-79
2024/04/08 10:53:39;;;;;;;11.70;6.43;;;17.10;99.90;;;;;;5033283;28;20051;-79
2024/04/08 10:56:06;;;;;;;8.88;5.65;;;16.70;99.90;;;;;;5033939;28;20060;-77
2024/04/08 10:58:31;;;;;;;10.57;5.97;;;16.50;99.90;;;;;;5031918;28;20034;-78
2024/04/08 11:00:57;;;;;;;9.63;5.50;;;16.40;99.90;;;;;;5025981;28;20582;-78
2024/04/08 11:03:23;;;;;;;11.60;6.20;;;16.40;99.90;;;;;;5027448;28;20037;-78
2024/04/08 11:05:49;;;;;;;10.07;6.55;;;16.50;99.90;;;;;;5045871;28;20089;-78
2024/04/08 11:08:16;;;;;;;10.60;6.20;;;16.40;99.90;;;;;;5019364;28;20489;-78
2024/04/08 11:10:45;;;;;;;12.82;6.78;;;16.30;99.90;;;;;;5016010;28;20042;-78
2024/04/08 11:13:12;;;;;;;10.57;5.38;;;16.40;99.90;;;;;;5032278;28;20619;-78
2024/04/08 11:15:39;;;;;;;10.52;5.22;;;16.50;99.90;;;;;;5021254;28;20103;-78
2024/04/08 11:18:09;;;;;;;9.05;5.00;;;16.60;99.90;;;;;;5020053;28;20049;-78
2024/04/08 11:20:34;;;;;;;9.40;5.57;;;16.60;99.90;;;;;;5019640;28;20582;-77
2024/04/08 11:23:03;;;;;;;10.43;4.75;;;16.80;99.90;;;;;;5019516;28;20045;-77
2024/04/08 11:25:29;;;;;;;8.10;4.75;;;16.90;99.90;;;;;;5037945;28;20037;-78
2024/04/08 11:27:55;;;;;;;11.15;4.38;;;16.90;99.90;;;;;;5027916;28;20474;-78
2024/04/08 11:31:56;;;;;;;5.97;2.40;;;17.10;99.90;;;;;;5517515;25;20416;-77
2024/04/08 11:34:23;;;;;;;5.72;1.85;;;17.10;99.90;;;;;;5508921;25;20059;-77
2024/04/08 11:36:50;;;;;;;6.50;2.17;;;17.00;99.90;;;;;;5475552;25;20009;-77
2024/04/08 11:39:17;;;;;;;5.97;2.42;;;17.10;99.90;;;;;;5483622;25;20702;-77
2024/04/08 11:41:44;;;;;;;5.90;2.88;;;17.10;99.90;;;;;;5489260;26;20026;-77
2024/04/08 11:44:10;;;;;;;8.73;4.00;;;17.00;99.90;;;;;;5488154;25;20026;-77
2024/04/08 11:46:37;;;;;;;8.88;3.55;;;16.90;99.90;;;;;;5474806;26;20026;-76
2024/04/08 11:49:05;;;;;;;6.63;3.80;;;17.00;99.90;;;;;;5469388;26;20022;-76
2024/04/08 11:51:32;;;;;;;10.40;3.88;;;17.00;99.90;;;;;;5478741;26;19998;-76
2024/04/08 11:53:59;;;;;;;10.05;3.42;;;17.00;99.90;;;;;;5463154;26;20479;-76
2024/04/08 11:56:25;;;;;;;7.05;3.30;;;17.20;99.90;;;;;;5465835;26;20349;-76
2024/04/08 11:58:53;;;;;;;6.53;2.90;;;17.10;99.90;;;;;;5462896;26;20007;-77
2024/04/08 12:01:20;;;;;;;5.10;2.75;;;17.30;99.90;;;;;;5465763;26;19998;-77
2024/04/08 12:03:46;;;;;;;8.05;3.20;;;17.20;99.90;;;;;;5464524;26;20050;-76
2024/04/08 12:06:15;;;;;;;8.35;3.25;;;17.20;99.90;;;;;;5465213;26;20299;-76
2024/04/08 12:08:41;;;;;;;7.47;2.60;;;17.20;99.90;;;;;;5472863;26;20238;-77
2024/04/08 12:11:10;;;;;;;8.48;2.63;;;17.30;99.90;;;;;;5468136;26;20006;-77
2024/04/08 12:13:37;;;;;;;6.28;2.45;;;17.20;99.90;;;;;;5467673;26;20034;-76
2024/04/08 12:16:04;;;;;;;6.25;2.30;;;17.20;99.90;;;;;;5471522;26;20034;-76
2024/04/08 12:18:31;;;;;;;6.00;2.55;;;17.30;99.90;;;;;;5485198;26;20026;-78
2024/04/08 12:20:59;;;;;;;5.45;2.28;;;17.20;99.90;;;;;;5475435;26;20038;-77
2024/04/08 12:23:26;;;;;;;6.57;2.40;;;17.10;99.90;;;;;;5466160;26;20010;-76
2024/04/08 12:25:52;;;;;;;5.88;2.05;;;17.20;99.90;;;;;;5466057;26;20026;-76
2024/04/08 12:28:19;;;;;;;5.57;2.22;;;17.10;99.90;;;;;;5473019;26;20462;-77
2024/04/08 12:30:47;;;;;;;3.78;1.80;;;17.20;99.90;;;;;;5471664;26;19994;-77
2024/04/08 12:33:14;;;;;;;5.35;2.53;;;17.30;99.90;;;;;;5477232;26;20022;-77
2024/04/08 12:35:42;;;;;;;6.25;2.70;;;17.30;99.90;;;;;;5480459;26;20046;-76